Green, Ohio
Current Conditions -  °F | °C
As of 5:51 AM on Thursday 27 Nov 2014 (Local Time) from KCAK Reporting Station
Haze Haze  
Wind Chill: 32°   Ceiling: 500
Heat Index: 32°   Visibility: 4mi
Dew Point: 28°   Wind: 3mph
Humidity: 85%   Direction: 320°NW
Pressure: 30.01"   Gusts: NA
Location:  40.95°N, 81.49°W
Report Text: KCAK 271051Z 32003KT 4SM BR OVC005 00/M02 A3001 RMK AO2 SNE48 SLP175 P0000 T00001022
Loading
Personal Weather Stations






























Interactive Weather Map New forecast layout! Learn more

10-Day Weather Forecast

Advertisements
Track Severe Weather on mobile